createdAt,value
2019-03-27T00:00:53.670Z,99315.23
2019-03-27T00:01:56.911Z,99318.22
2019-03-27T00:03:02.352Z,99318.22
2019-03-27T00:04:05.226Z,99320.64
2019-03-27T00:05:10.662Z,99306.11
2019-03-27T00:06:13.531Z,99306.38
2019-03-27T00:07:21.950Z,99308.83
2019-03-27T00:08:24.871Z,99303.44
2019-03-27T00:09:27.796Z,99308.05
2019-03-27T00:10:30.628Z,99310.77
2019-03-27T00:11:36.291Z,99304.82
2019-03-27T00:12:39.159Z,99304.82
2019-03-27T00:13:46.238Z,99308.30
2019-03-27T00:14:52.255Z,99308.81
2019-03-27T00:15:55.660Z,99308.81
2019-03-27T00:16:58.504Z,99309.86
2019-03-27T00:18:04.431Z,99303.14
2019-03-27T00:19:07.785Z,99304.23
2019-03-27T00:20:11.070Z,99306.16
2019-03-27T00:21:13.923Z,99302.39
2019-03-27T00:22:16.767Z,99302.39
2019-03-27T00:23:22.964Z,99311.30
2019-03-27T00:24:26.301Z,99304.53
2019-03-27T00:25:32.107Z,99304.52
2019-03-27T00:26:35.242Z,99308.05
2019-03-27T00:27:38.101Z,99307.78
2019-03-27T00:28:40.945Z,99307.78
2019-03-27T00:29:44.307Z,99307.23
2019-03-27T00:30:47.241Z,99316.17
2019-03-27T00:31:50.219Z,99319.11
2019-03-27T00:32:53.387Z,99312.88
2019-03-27T00:33:56.620Z,99312.88
2019-03-27T00:35:01.777Z,99322.36
2019-03-27T00:36:04.692Z,99320.46
2019-03-27T00:37:07.662Z,99320.22
2019-03-27T00:38:12.228Z,99321.81
2019-03-27T00:39:15.344Z,99321.58
2019-03-27T00:40:18.581Z,99324.78
2019-03-27T00:41:21.537Z,99319.92
2019-03-27T00:42:24.474Z,99319.92
2019-03-27T00:43:27.922Z,99319.92
2019-03-27T00:44:30.768Z,99323.97
2019-03-27T00:45:33.897Z,99317.75
2019-03-27T00:46:37.177Z,99312.62
2019-03-27T00:47:40.568Z,99315.88
2019-03-27T00:48:43.413Z,99308.83
2019-03-27T00:49:47.631Z,99308.55
2019-03-27T00:50:50.658Z,99315.30
2019-03-27T00:51:54.154Z,99303.70
2019-03-27T00:53:04.941Z,99316.15
2019-03-27T00:54:07.997Z,99320.13
2019-03-27T00:55:11.247Z,99315.55
2019-03-27T00:56:15.180Z,99320.97
2019-03-27T00:57:20.225Z,99314.73
2019-03-27T00:58:26.372Z,99315.56
2019-03-27T00:59:29.255Z,99317.72
2019-03-27T01:00:32.228Z,99310.70
2019-03-27T01:01:35.063Z,99310.70
2019-03-27T01:02:37.911Z,99316.94
2019-03-27T01:03:41.294Z,99316.94
2019-03-27T01:04:44.468Z,99310.17
2019-03-27T01:05:47.338Z,99313.14
2019-03-27T01:06:51.097Z,99310.16
2019-03-27T01:07:54.107Z,99315.83
2019-03-27T01:08:57.470Z,99315.83
2019-03-27T01:10:00.665Z,99313.05
2019-03-27T01:11:03.829Z,99313.05
2019-03-27T01:12:06.684Z,99316.55
2019-03-27T01:13:09.705Z,99316.55
2019-03-27T01:15:40.199Z,99315.71
2019-03-27T01:16:41.981Z,99320.30
2019-03-27T01:17:44.796Z,99320.30
2019-03-27T01:18:47.827Z,99317.34
2019-03-27T01:19:50.759Z,99308.17
2019-03-27T01:20:53.635Z,99308.17
2019-03-27T01:22:00.272Z,99313.28
2019-03-27T01:23:03.360Z,99313.28
2019-03-27T01:24:06.687Z,99316.55
2019-03-27T01:25:10.421Z,99314.63
2019-03-27T01:26:13.539Z,99309.17
2019-03-27T01:27:16.745Z,99309.17
2019-03-27T01:28:19.631Z,99314.27
2019-03-27T01:29:22.877Z,99312.64
2019-03-27T01:30:25.780Z,99305.56
2019-03-27T01:31:28.993Z,99312.09
2019-03-27T01:32:31.859Z,99310.49
2019-03-27T01:33:34.753Z,99318.91
2019-03-27T01:34:38.072Z,99315.95
2019-03-27T01:35:41.264Z,99309.22
2019-03-27T01:36:44.150Z,99313.48
2019-03-27T01:37:47.337Z,99313.48
2019-03-27T01:38:50.202Z,99307.26
2019-03-27T01:39:53.160Z,99308.43
2019-03-27T01:40:56.098Z,99308.43
2019-03-27T01:41:59.227Z,99310.83
2019-03-27T01:43:02.038Z,99310.52
2019-03-27T01:44:04.897Z,99314.55
2019-03-27T01:45:10.192Z,99314.55
2019-03-27T01:46:13.109Z,99315.58
2019-03-27T01:47:16.020Z,99315.58
2019-03-27T01:48:20.244Z,99312.25
2019-03-27T01:49:23.479Z,99312.25
2019-03-27T01:50:26.347Z,99313.89
2019-03-27T01:51:29.166Z,99312.06
2019-03-27T01:52:32.049Z,99315.59
2019-03-27T01:53:35.261Z,99318.30
2019-03-27T01:54:38.355Z,99316.97
2019-03-27T01:55:43.340Z,99318.32
2019-03-27T01:56:46.556Z,99318.32
2019-03-27T01:57:49.427Z,99315.89
2019-03-27T01:58:52.307Z,99308.77
2019-03-27T01:59:55.532Z,99313.09
2019-03-27T02:00:58.650Z,99310.38
2019-03-27T02:02:01.607Z,99310.38
2019-03-27T02:03:04.479Z,99311.45
2019-03-27T02:04:07.891Z,99311.23
2019-03-27T02:05:11.616Z,99311.23
2019-03-27T02:06:14.436Z,99309.86
2019-03-27T02:07:17.566Z,99311.39
2019-03-27T02:08:22.970Z,99308.41
2019-03-27T02:09:25.780Z,99311.11
2019-03-27T02:10:28.552Z,99308.64
2019-03-27T02:11:31.854Z,99304.30
2019-03-27T02:12:34.831Z,99305.66
2019-03-27T02:13:40.736Z,99305.66
2019-03-27T02:14:43.556Z,99312.42
2019-03-27T02:15:46.363Z,99314.89
2019-03-27T02:16:49.247Z,99306.81
2019-03-27T02:17:52.168Z,99310.36
2019-03-27T02:18:56.046Z,99309.52
2019-03-27T02:19:59.703Z,99310.05
2019-03-27T02:21:02.576Z,99310.05
2019-03-27T02:22:05.376Z,99315.87
2019-03-27T02:23:08.198Z,99315.87
2019-03-27T02:24:11.531Z,99314.02
2019-03-27T02:25:14.744Z,99314.27
2019-03-27T02:26:17.917Z,99316.42
2019-03-27T02:27:21.149Z,99316.42
2019-03-27T02:28:25.169Z,99311.34
2019-03-27T02:29:28.432Z,99311.34
2019-03-27T02:30:31.276Z,99313.34
2019-03-27T02:31:34.257Z,99312.98
2019-03-27T02:32:37.372Z,99312.65
2019-03-27T02:33:40.863Z,99312.65
2019-03-27T02:34:44.079Z,99316.27
2019-03-27T02:35:46.960Z,99316.27
2019-03-27T02:36:50.254Z,99309.84
2019-03-27T02:37:53.086Z,99309.84
2019-03-27T02:38:56.186Z,99316.89
2019-03-27T02:39:59.445Z,99319.33
2019-03-27T02:41:02.896Z,99318.27
2019-03-27T02:42:06.062Z,99319.04
2019-03-27T02:43:08.865Z,99319.04
2019-03-27T02:44:11.756Z,99315.59
2019-03-27T02:45:14.991Z,99314.02
2019-03-27T02:46:25.028Z,99312.39
2019-03-27T02:47:22.865Z,99310.76
2019-03-27T02:48:25.674Z,99317.50
2019-03-27T02:49:28.926Z,99316.72
2019-03-27T02:50:31.773Z,99316.72
2019-03-27T02:51:34.600Z,99317.25
2019-03-27T02:52:37.440Z,99321.78
2019-03-27T02:53:40.315Z,99317.69
2019-03-27T02:54:43.137Z,99322.23
2019-03-27T02:55:47.572Z,99313.01
2019-03-27T02:56:50.393Z,99315.70
2019-03-27T02:57:53.223Z,99316.53
2019-03-27T02:58:56.117Z,99323.77
2019-03-27T02:59:58.937Z,99326.95
2019-03-27T03:01:01.758Z,99324.78
2019-03-27T03:02:05.220Z,99324.78
2019-03-27T03:03:08.023Z,99313.89
2019-03-27T03:04:10.899Z,99313.89
2019-03-27T03:05:14.203Z,99329.34
2019-03-27T03:06:17.022Z,99319.62
2019-03-27T03:07:19.832Z,99319.11
2019-03-27T03:08:23.032Z,99319.86
2019-03-27T03:09:26.244Z,99313.30
2019-03-27T03:10:29.110Z,99313.30
2019-03-27T03:11:32.377Z,99320.32
2019-03-27T03:12:35.210Z,99314.13
2019-03-27T03:13:38.791Z,99319.44
2019-03-27T03:14:42.283Z,99313.73
2019-03-27T03:15:45.598Z,99313.73
2019-03-27T03:16:48.747Z,99322.37
2019-03-27T03:17:51.632Z,99319.12
2019-03-27T03:18:54.978Z,99309.09
2019-03-27T03:19:58.272Z,99321.77
2019-03-27T03:21:03.437Z,99312.80
2019-03-27T03:22:06.280Z,99307.93
2019-03-27T03:23:09.138Z,99307.93
2019-03-27T03:24:12.003Z,99323.56
2019-03-27T03:25:14.933Z,99317.67
2019-03-27T03:26:17.758Z,99309.84
2019-03-27T03:27:22.678Z,99316.80
2019-03-27T03:28:27.067Z,99314.40
2019-03-27T03:29:29.975Z,99319.73
2019-03-27T03:30:32.830Z,99323.80
2019-03-27T03:31:36.138Z,99323.80
2019-03-27T03:32:41.598Z,99322.19
2019-03-27T03:33:45.123Z,99318.84
2019-03-27T03:34:50.951Z,99318.84
2019-03-27T03:35:54.207Z,99317.77
2019-03-27T03:36:57.085Z,99311.70
2019-03-27T03:38:03.699Z,99316.48
2019-03-27T03:39:08.128Z,99314.74
2019-03-27T03:40:12.899Z,99316.60
2019-03-27T03:41:15.835Z,99313.91
2019-03-27T03:42:21.111Z,99313.91
2019-03-27T03:43:23.937Z,99318.81
2019-03-27T03:44:26.785Z,99320.23
2019-03-27T03:45:30.472Z,99323.23
2019-03-27T03:46:33.296Z,99326.16
2019-03-27T03:47:36.091Z,99333.42
2019-03-27T03:48:38.945Z,99333.42
2019-03-27T03:49:42.226Z,99331.18
2019-03-27T03:50:45.045Z,99336.70
2019-03-27T03:51:49.712Z,99337.41
2019-03-27T03:52:52.970Z,99342.48
2019-03-27T03:53:55.793Z,99333.48
2019-03-27T03:54:58.694Z,99333.48
2019-03-27T03:56:01.575Z,99351.13
2019-03-27T03:57:04.400Z,99351.13
2019-03-27T03:58:07.630Z,99347.02
2019-03-27T03:59:10.454Z,99343.25
2019-03-27T04:00:13.347Z,99346.01
2019-03-27T04:01:16.277Z,99346.01
2019-03-27T04:02:19.785Z,99347.34
2019-03-27T04:03:23.018Z,99341.67
2019-03-27T04:04:26.120Z,99343.52
2019-03-27T04:05:29.018Z,99330.08
2019-03-27T04:06:32.261Z,99330.08
2019-03-27T04:07:35.545Z,99343.02
2019-03-27T04:08:43.330Z,99340.14
2019-03-27T04:09:48.239Z,99339.27
2019-03-27T04:10:51.366Z,99343.55
2019-03-27T04:11:54.300Z,99344.56
2019-03-27T04:12:58.514Z,99337.00
2019-03-27T04:14:01.724Z,99337.00
2019-03-27T04:15:04.685Z,99342.52
2019-03-27T04:16:07.579Z,99343.06
2019-03-27T04:17:17.493Z,99345.45
2019-03-27T04:18:15.391Z,99345.45
2019-03-27T04:19:18.660Z,99349.28
2019-03-27T04:20:21.862Z,99350.11
2019-03-27T04:21:26.947Z,99347.26
2019-03-27T04:22:31.054Z,99347.26
2019-03-27T04:23:36.983Z,99351.03
2019-03-27T04:24:40.220Z,99351.03
2019-03-27T04:26:08.297Z,99351.79
2019-03-27T04:26:47.502Z,99355.61
2019-03-27T04:27:50.347Z,99353.52
2019-03-27T04:28:53.515Z,99358.97
2019-03-27T04:29:59.577Z,99359.77
2019-03-27T04:31:02.495Z,99359.77
2019-03-27T04:32:05.316Z,99365.98
2019-03-27T04:33:08.158Z,99361.53
2019-03-27T04:34:11.264Z,99361.53
2019-03-27T04:35:15.675Z,99364.81
2019-03-27T04:36:18.932Z,99367.70
2019-03-27T04:37:22.071Z,99367.45
2019-03-27T04:38:24.928Z,99364.42
2019-03-27T04:39:27.846Z,99368.13
2019-03-27T04:40:30.755Z,99368.75
2019-03-27T04:41:34.927Z,99365.47
2019-03-27T04:42:37.762Z,99365.47
2019-03-27T04:43:43.383Z,99367.91
2019-03-27T04:44:46.262Z,99371.78
2019-03-27T04:45:49.072Z,99367.13
2019-03-27T04:46:52.557Z,99367.13
2019-03-27T04:47:55.795Z,99372.33
2019-03-27T04:49:01.096Z,99372.33
2019-03-27T04:50:06.713Z,99374.13
2019-03-27T04:51:09.564Z,99370.86
2019-03-27T04:52:12.434Z,99374.89
2019-03-27T04:53:15.281Z,99372.92
2019-03-27T04:54:19.623Z,99376.91
2019-03-27T04:55:22.671Z,99376.91
2019-03-27T04:56:25.503Z,99377.70
2019-03-27T04:57:28.323Z,99377.70
2019-03-27T04:58:31.211Z,99367.95
2019-03-27T04:59:34.137Z,99378.20
2019-03-27T05:00:37.265Z,99377.73
2019-03-27T05:01:41.187Z,99373.70
2019-03-27T05:02:44.777Z,99373.92
2019-03-27T05:03:47.604Z,99382.03
2019-03-27T05:05:01.055Z,99382.41
2019-03-27T05:06:03.575Z,99382.41
2019-03-27T05:07:07.068Z,99373.88
2019-03-27T05:08:09.895Z,99379.55
2019-03-27T05:09:12.719Z,99379.55
2019-03-27T05:10:15.599Z,99376.82
2019-03-27T05:11:26.272Z,99375.47
2019-03-27T05:12:31.903Z,99373.80
2019-03-27T05:13:35.083Z,99373.80
2019-03-27T05:14:37.989Z,99380.02
2019-03-27T05:15:40.885Z,99380.02
2019-03-27T05:16:43.821Z,99377.16
2019-03-27T05:17:47.155Z,99369.14
2019-03-27T05:18:49.995Z,99372.17
2019-03-27T05:19:53.192Z,99371.62
2019-03-27T05:20:56.038Z,99370.10
2019-03-27T05:21:58.938Z,99370.98
2019-03-27T05:23:03.762Z,99382.03
2019-03-27T05:24:06.576Z,99380.19
2019-03-27T05:25:12.337Z,99379.72
2019-03-27T05:26:17.420Z,99380.27
2019-03-27T05:27:20.651Z,99379.80
2019-03-27T05:28:23.887Z,99382.16
2019-03-27T05:29:26.739Z,99382.16
2019-03-27T05:30:29.608Z,99382.70
2019-03-27T05:31:32.850Z,99384.84
2019-03-27T05:32:35.989Z,99387.28
2019-03-27T05:33:38.829Z,99389.77
2019-03-27T05:34:41.629Z,99389.77
2019-03-27T05:35:45.008Z,99393.29
2019-03-27T05:36:47.832Z,99393.07
2019-03-27T05:37:51.463Z,99394.50
2019-03-27T05:38:54.656Z,99394.50
2019-03-27T05:39:57.850Z,99403.69
2019-03-27T05:41:03.320Z,99402.01
2019-03-27T05:42:06.156Z,99399.45
2019-03-27T05:43:10.539Z,99399.45
2019-03-27T05:44:13.512Z,99414.83
2019-03-27T05:45:19.482Z,99410.97
2019-03-27T05:46:22.342Z,99408.05
2019-03-27T05:47:25.186Z,99413.41
2019-03-27T05:48:28.078Z,99414.76
2019-03-27T05:49:30.967Z,99413.02
2019-03-27T05:50:34.317Z,99409.20
2019-03-27T05:51:37.512Z,99414.16
2019-03-27T05:52:40.809Z,99415.80
2019-03-27T05:53:44.193Z,99419.19
2019-03-27T05:54:46.998Z,99418.39
2019-03-27T05:55:49.934Z,99417.85
2019-03-27T05:56:53.605Z,99422.67
2019-03-27T05:57:57.070Z,99417.94
2019-03-27T05:58:59.985Z,99424.55
2019-03-27T06:00:02.923Z,99424.45
2019-03-27T06:01:05.752Z,99426.65
2019-03-27T06:02:08.748Z,99429.92
2019-03-27T06:03:11.937Z,99426.98
2019-03-27T06:04:15.213Z,99426.53
2019-03-27T06:05:20.858Z,99423.98
2019-03-27T06:06:23.688Z,99424.93
2019-03-27T06:07:27.034Z,99424.63
2019-03-27T06:08:29.962Z,99424.63
2019-03-27T06:09:34.483Z,99431.50
2019-03-27T06:10:37.793Z,99423.94
2019-03-27T06:11:44.161Z,99426.23
2019-03-27T06:12:47.251Z,99426.58
2019-03-27T06:13:51.607Z,99426.58
2019-03-27T06:14:57.438Z,99412.73
2019-03-27T06:16:00.646Z,99412.73
2019-03-27T06:17:03.584Z,99414.87
2019-03-27T06:18:13.225Z,99412.11
2019-03-27T06:19:15.786Z,99411.61
2019-03-27T06:20:18.661Z,99411.52
2019-03-27T06:21:22.726Z,99408.70
2019-03-27T06:22:26.120Z,99403.79
2019-03-27T06:23:28.949Z,99403.45
2019-03-27T06:24:44.495Z,99403.39
2019-03-27T06:25:47.739Z,99411.95
2019-03-27T06:26:54.760Z,99411.95
2019-03-27T06:27:57.722Z,99414.03
2019-03-27T06:29:01.242Z,99415.92
2019-03-27T06:30:04.171Z,99417.31
2019-03-27T06:44:07.315Z,99424.92
2019-03-27T06:45:11.201Z,99424.92
2019-03-27T06:46:15.883Z,99430.13
2019-03-27T06:47:19.840Z,99430.13
2019-03-27T06:48:26.425Z,99442.52
2019-03-27T06:49:29.153Z,99444.28
2019-03-27T06:50:32.063Z,99446.78
2019-03-27T06:51:40.392Z,99446.78
2019-03-27T06:52:40.537Z,99454.23
2019-03-27T06:53:43.708Z,99448.33
2019-03-27T06:54:49.593Z,99449.33
2019-03-27T06:55:58.754Z,99446.59
2019-03-27T06:57:01.683Z,99442.46
2019-03-27T06:58:04.919Z,99451.93
2019-03-27T06:59:08.121Z,99454.22
2019-03-27T07:00:13.593Z,99447.71
2019-03-27T07:01:19.552Z,99454.75
2019-03-27T07:02:22.855Z,99454.75
2019-03-27T07:03:26.383Z,99448.80
2019-03-27T07:04:29.228Z,99453.04
2019-03-27T07:05:35.357Z,99453.17
2019-03-27T07:06:38.173Z,99447.11
2019-03-27T07:07:41.156Z,99446.66
2019-03-27T07:08:44.473Z,99449.33
2019-03-27T07:09:47.374Z,99449.33
2019-03-27T07:10:50.247Z,99442.20
2019-03-27T07:11:53.074Z,99454.09
2019-03-27T07:12:58.126Z,99450.13
2019-03-27T07:14:00.732Z,99450.13
2019-03-27T07:15:03.890Z,99455.36
2019-03-27T07:16:06.682Z,99455.36
2019-03-27T07:17:09.508Z,99452.98
2019-03-27T07:18:13.500Z,99454.47
2019-03-27T07:19:16.442Z,99454.87
2019-03-27T07:20:37.466Z,99463.03
2019-03-27T07:21:42.558Z,99459.47
2019-03-27T07:22:45.407Z,99461.48
2019-03-27T07:23:48.441Z,99461.58
2019-03-27T07:24:54.395Z,99461.58
2019-03-27T07:25:57.359Z,99460.48
2019-03-27T07:27:00.486Z,99460.48
2019-03-27T07:28:05.196Z,99455.84
2019-03-27T07:29:08.134Z,99456.83
2019-03-27T07:30:12.293Z,99456.83
2019-03-27T07:31:15.183Z,99457.59
2019-03-27T07:32:20.492Z,99454.08
2019-03-27T07:33:23.639Z,99454.00
2019-03-27T07:34:29.422Z,99454.00
2019-03-27T07:35:33.435Z,99463.86
2019-03-27T07:36:36.668Z,99467.06
2019-03-27T07:37:41.833Z,99461.66
2019-03-27T07:38:48.139Z,99461.66
2019-03-27T07:39:53.358Z,99463.99
2019-03-27T07:40:56.284Z,99463.99
2019-03-27T07:42:02.139Z,99459.97
2019-03-27T07:43:07.576Z,99470.62
2019-03-27T07:44:16.065Z,99465.53
2019-03-27T07:45:19.284Z,99467.23
2019-03-27T07:46:22.168Z,99469.56
2019-03-27T07:47:25.180Z,99469.56
2019-03-27T07:48:28.116Z,99475.47
2019-03-27T07:49:34.862Z,99475.36
2019-03-27T07:50:40.014Z,99475.30
2019-03-27T07:51:45.811Z,99476.39
2019-03-27T07:52:48.733Z,99476.39
2019-03-27T07:53:57.207Z,99478.14
2019-03-27T07:55:02.882Z,99477.41
2019-03-27T07:56:11.354Z,99474.72
2019-03-27T07:57:23.659Z,99474.89
2019-03-27T07:58:27.977Z,99472.43
2019-03-27T07:59:32.387Z,99472.67
2019-03-27T08:00:35.254Z,99472.30
2019-03-27T08:01:41.574Z,99472.30
2019-03-27T08:02:51.896Z,99479.39
2019-03-27T08:03:55.343Z,99480.67
2019-03-27T08:04:58.735Z,99480.67
2019-03-27T08:06:04.199Z,99473.98
2019-03-27T08:07:09.296Z,99470.23
2019-03-27T08:08:19.204Z,99474.03
2019-03-27T08:09:23.171Z,99473.80
2019-03-27T08:10:26.195Z,99469.46
2019-03-27T08:11:29.517Z,99469.46
2019-03-27T08:12:33.058Z,99471.91
2019-03-27T08:13:37.651Z,99476.80
2019-03-27T08:14:40.905Z,99476.77
2019-03-27T08:15:43.794Z,99478.11
2019-03-27T08:16:46.705Z,99467.48
2019-03-27T08:17:50.056Z,99469.56
2019-03-27T08:19:06.615Z,99471.57
2019-03-27T08:19:57.395Z,99474.91
2019-03-27T08:21:00.260Z,99478.14
2019-03-27T08:22:08.827Z,99471.89
2019-03-27T08:23:16.096Z,99473.23
2019-03-27T08:24:26.723Z,99473.23
2019-03-27T08:25:33.468Z,99481.92
2019-03-27T08:26:36.326Z,99469.11
2019-03-27T08:27:39.266Z,99471.17
2019-03-27T08:28:42.189Z,99469.17
2019-03-27T08:29:45.062Z,99478.45
2019-03-27T08:30:56.524Z,99478.45
2019-03-27T08:32:04.636Z,99471.62
2019-03-27T08:33:08.306Z,99472.11
2019-03-27T08:34:11.593Z,99473.81
2019-03-27T08:35:25.411Z,99473.81
2019-03-27T08:36:31.335Z,99472.53
2019-03-27T08:37:34.585Z,99472.53
2019-03-27T08:38:40.708Z,99462.48
2019-03-27T08:39:45.292Z,99462.48
2019-03-27T08:40:48.242Z,99469.30
2019-03-27T08:41:51.166Z,99467.91
2019-03-27T08:42:57.227Z,99466.27
2019-03-27T08:44:00.430Z,99466.27
2019-03-27T08:45:05.037Z,99471.62
2019-03-27T08:46:07.865Z,99473.09
2019-03-27T08:47:10.698Z,99470.99
2019-03-27T08:48:13.639Z,99470.99
2019-03-27T08:49:22.152Z,99472.77
2019-03-27T08:50:22.719Z,99469.86
2019-03-27T08:51:25.661Z,99475.18
2019-03-27T08:52:29.902Z,99475.18
2019-03-27T08:53:33.657Z,99475.55
2019-03-27T08:54:39.266Z,99469.42
2019-03-27T08:55:44.317Z,99470.25
2019-03-27T08:56:47.324Z,99480.40
2019-03-27T08:57:51.332Z,99479.62
2019-03-27T08:58:56.430Z,99481.03
2019-03-27T09:00:03.103Z,99475.52
2019-03-27T09:01:06.298Z,99475.52
2019-03-27T09:02:09.335Z,99477.20
2019-03-27T09:03:13.697Z,99477.20
2019-03-27T09:04:16.972Z,99477.00
2019-03-27T09:05:19.890Z,99477.08
2019-03-27T09:06:33.170Z,99482.91
2019-03-27T09:07:29.847Z,99480.58
2019-03-27T09:08:32.803Z,99479.33
2019-03-27T09:09:37.502Z,99470.34
2019-03-27T09:10:43.478Z,99470.34
2019-03-27T09:11:46.322Z,99485.91
2019-03-27T09:12:49.732Z,99485.91
2019-03-27T09:13:56.208Z,99485.63
2019-03-27T09:15:05.147Z,99494.09
2019-03-27T09:16:03.614Z,99496.07
2019-03-27T09:17:07.179Z,99492.17
2019-03-27T09:18:10.163Z,99497.08
2019-03-27T09:19:19.202Z,99500.25
2019-03-27T09:20:22.846Z,99500.88
2019-03-27T09:21:26.272Z,99503.87
2019-03-27T09:22:30.193Z,99503.87
2019-03-27T09:23:34.070Z,99502.44
2019-03-27T09:24:47.383Z,99505.45
2019-03-27T09:25:51.594Z,99500.56
2019-03-27T09:27:03.183Z,99510.63
2019-03-27T09:28:14.680Z,99502.12
2019-03-27T09:29:16.626Z,99502.14
2019-03-27T09:30:22.529Z,99493.44
2019-03-27T09:31:27.309Z,99501.16
2019-03-27T09:32:29.841Z,99501.66
2019-03-27T09:33:34.510Z,99504.14
2019-03-27T09:34:42.016Z,99503.59
2019-03-27T09:35:44.904Z,99500.03
2019-03-27T09:36:49.808Z,99500.03
2019-03-27T09:37:55.523Z,99500.80
2019-03-27T09:38:58.531Z,99503.84
2019-03-27T09:40:01.634Z,99502.20
2019-03-27T09:41:07.839Z,99504.67
2019-03-27T09:42:10.762Z,99503.63
2019-03-27T09:43:15.022Z,99503.60
2019-03-27T09:44:21.689Z,99506.58
2019-03-27T09:45:28.850Z,99506.58
2019-03-27T09:46:31.746Z,99504.38
2019-03-27T09:47:34.923Z,99505.23
2019-03-27T09:48:40.806Z,99510.64
2019-03-27T09:49:49.906Z,99503.54
2019-03-27T09:50:51.414Z,99503.54
2019-03-27T09:51:56.560Z,99503.27
2019-03-27T09:52:58.976Z,99501.59
2019-03-27T09:54:01.859Z,99502.90
2019-03-27T09:55:08.421Z,99500.78
2019-03-27T09:56:18.932Z,99501.89
2019-03-27T09:57:16.074Z,99501.89
2019-03-27T09:58:20.802Z,99507.89
2019-03-27T09:59:24.182Z,99512.78
2019-03-27T10:00:27.342Z,99512.78
2019-03-27T10:01:32.669Z,99508.77
2019-03-27T10:02:35.840Z,99505.50
2019-03-27T10:03:38.804Z,99514.72
2019-03-27T10:04:44.100Z,99509.02
2019-03-27T10:05:48.610Z,99509.02
2019-03-27T10:06:57.511Z,99506.87
2019-03-27T10:08:00.446Z,99512.81
2019-03-27T10:09:11.827Z,99508.50
2019-03-27T10:10:15.199Z,99513.91
2019-03-27T10:11:23.729Z,99513.08
2019-03-27T10:12:25.209Z,99514.17
2019-03-27T10:13:28.032Z,99514.17
2019-03-27T10:14:31.294Z,99513.09
2019-03-27T10:15:37.244Z,99511.16
2019-03-27T10:16:41.585Z,99514.94
2019-03-27T10:17:44.580Z,99514.94
2019-03-27T10:18:50.498Z,99507.08
2019-03-27T10:20:06.077Z,99506.01
2019-03-27T10:21:00.623Z,99506.01
2019-03-27T10:22:09.137Z,99510.94
2019-03-27T10:23:11.620Z,99503.61
2019-03-27T10:24:15.363Z,99509.56
2019-03-27T10:25:18.276Z,99507.12
2019-03-27T10:26:21.269Z,99507.12
2019-03-27T10:27:26.507Z,99494.48
2019-03-27T10:28:32.666Z,99497.81
2019-03-27T10:29:36.643Z,99497.81
2019-03-27T10:30:39.672Z,99495.34
2019-03-27T10:31:42.610Z,99506.75
2019-03-27T10:32:48.117Z,99498.53
2019-03-27T10:33:57.620Z,99503.49
2019-03-27T10:35:00.737Z,99497.58
2019-03-27T10:36:10.631Z,99500.35
2019-03-27T10:37:16.672Z,99500.35
2019-03-27T10:38:27.803Z,99499.64
2019-03-27T10:39:31.209Z,99495.16
2019-03-27T10:40:34.076Z,99495.16
2019-03-27T10:41:40.556Z,99488.97
2019-03-27T10:42:43.454Z,99484.97
2019-03-27T10:44:00.144Z,99484.81
2019-03-27T10:45:03.382Z,99482.01
2019-03-27T10:46:06.383Z,99483.84
2019-03-27T10:47:09.583Z,99483.84
2019-03-27T10:48:12.435Z,99491.58
2019-03-27T10:49:19.928Z,99491.66
2019-03-27T10:50:27.838Z,99480.72
2019-03-27T10:51:30.813Z,99480.72
2019-03-27T10:52:33.752Z,99483.13
2019-03-27T10:53:36.655Z,99488.38
2019-03-27T10:54:40.085Z,99491.79
2019-03-27T10:55:48.417Z,99488.94
2019-03-27T10:56:54.733Z,99495.30
2019-03-27T10:57:57.548Z,99495.30
2019-03-27T10:59:12.561Z,99490.10
2019-03-27T11:00:18.622Z,99496.39
2019-03-27T11:01:23.493Z,99491.43
2019-03-27T11:02:26.429Z,99491.43
2019-03-27T11:03:30.296Z,99496.95
2019-03-27T11:04:33.204Z,99493.60
2019-03-27T11:05:36.042Z,99495.96
2019-03-27T11:06:38.937Z,99493.14
2019-03-27T11:07:42.915Z,99493.09
2019-03-27T11:08:46.092Z,99495.56
2019-03-27T11:09:49.333Z,99493.33
2019-03-27T11:10:52.436Z,99498.63
2019-03-27T11:11:55.300Z,99498.63
2019-03-27T11:12:58.221Z,99493.59
2019-03-27T11:14:01.924Z,99500.69
2019-03-27T11:15:05.326Z,99500.69
2019-03-27T11:16:08.580Z,99495.70
2019-03-27T11:17:13.091Z,99495.80
2019-03-27T11:18:17.846Z,99495.80
2019-03-27T11:19:20.783Z,99496.98
2019-03-27T11:20:31.383Z,99498.60
2019-03-27T11:21:32.616Z,99495.11
2019-03-27T11:22:35.491Z,99495.11
2019-03-27T11:23:38.357Z,99495.34
2019-03-27T11:24:41.290Z,99499.22
2019-03-27T11:25:44.129Z,99499.22
2019-03-27T11:26:47.032Z,99499.19
2019-03-27T11:27:50.582Z,99494.11
2019-03-27T11:28:56.387Z,99494.11
2019-03-27T11:42:51.903Z,99479.94
2019-03-27T11:43:58.214Z,99474.70
2019-03-27T11:45:02.932Z,99477.85
2019-03-27T11:46:06.292Z,99476.84
2019-03-27T11:47:11.873Z,99477.77
2019-03-27T11:48:15.196Z,99470.38
2019-03-27T11:49:18.463Z,99475.13
2019-03-27T11:50:24.441Z,99473.10
2019-03-27T11:51:27.415Z,99473.10
2019-03-27T11:52:30.500Z,99478.34
2019-03-27T11:53:33.430Z,99479.74
2019-03-27T11:54:36.590Z,99474.64
2019-03-27T11:55:39.466Z,99480.95
2019-03-27T11:56:46.935Z,99475.67
2019-03-27T11:57:51.375Z,99466.95
2019-03-27T11:58:56.478Z,99466.95
2019-03-27T12:00:02.528Z,99465.43
2019-03-27T12:01:18.056Z,99467.20
2019-03-27T12:02:21.804Z,99473.89
2019-03-27T12:03:25.492Z,99477.16
2019-03-27T12:04:28.426Z,99477.16
2019-03-27T12:05:34.114Z,99472.97
2019-03-27T12:06:37.218Z,99467.59
2019-03-27T12:07:49.696Z,99471.62
2019-03-27T12:08:54.232Z,99479.19
2019-03-27T12:10:04.080Z,99475.20
2019-03-27T12:11:25.643Z,99474.08
2019-03-27T12:12:37.226Z,99466.16
2019-03-27T12:13:43.424Z,99466.16
2019-03-27T12:14:50.738Z,99466.69
2019-03-27T12:15:56.201Z,99468.81
2019-03-27T12:17:01.397Z,99469.02
2019-03-27T12:18:08.175Z,99464.83
2019-03-27T12:19:11.434Z,99464.83
2019-03-27T12:20:14.691Z,99465.91
2019-03-27T12:21:17.978Z,99467.58
2019-03-27T12:22:20.928Z,99467.58
2019-03-27T12:23:23.923Z,99462.68
2019-03-27T12:24:28.641Z,99470.13
2019-03-27T12:25:35.722Z,99468.58
2019-03-27T12:26:39.952Z,99468.58
2019-03-27T12:27:42.794Z,99476.25
2019-03-27T12:28:45.795Z,99468.18
2019-03-27T12:29:48.676Z,99464.69
2019-03-27T12:30:54.002Z,99464.69
2019-03-27T12:31:57.380Z,99455.03
2019-03-27T12:33:00.286Z,99457.66
2019-03-27T12:34:03.221Z,99460.60
2019-03-27T12:35:06.158Z,99453.23
2019-03-27T12:36:09.343Z,99454.47
2019-03-27T12:37:12.238Z,99449.84
2019-03-27T12:38:23.964Z,99449.47
2019-03-27T12:39:28.678Z,99447.45
2019-03-27T12:40:33.490Z,99440.95
2019-03-27T12:41:37.580Z,99447.83
2019-03-27T12:42:40.433Z,99446.20
2019-03-27T12:43:43.342Z,99445.13
2019-03-27T12:44:48.299Z,99451.36
2019-03-27T12:45:52.847Z,99451.36
2019-03-27T12:46:55.938Z,99448.52
2019-03-27T12:48:01.504Z,99448.52
2019-03-27T12:49:03.973Z,99444.09
2019-03-27T12:50:09.810Z,99447.92
2019-03-27T12:51:14.371Z,99441.25
2019-03-27T12:52:20.887Z,99441.25
2019-03-27T12:53:24.173Z,99440.81
2019-03-27T12:54:28.853Z,99446.44
2019-03-27T12:55:32.576Z,99443.05
2019-03-27T12:56:41.430Z,99448.03
2019-03-27T12:57:53.422Z,99439.53
2019-03-27T12:59:05.108Z,99454.89
2019-03-27T13:00:06.690Z,99457.52
2019-03-27T13:01:19.318Z,99450.09